FDX1238 KMKE-KMEM
Flight info
| Callsign | FDX1238 |
|---|---|
| Flight time | 1h 25m |
| Altitude | 36000 |
| Route | ACCRA5 ACCRA RBS FAM WHOLL BRBBQ3 |
| Aircraft | B763/H-SDE3FGHIJ2J3J5M3RWXY/LB1D1 |
Departure
| Time | 2026-04-14 15:09 |
|---|---|
| Airport | General Mitchell International Airport (KMKE) |
Arrival
| Time | 2026-04-14 16:34 |
|---|---|
| Airport | Memphis International Airport (KMEM) |
| Time | Latitude | Longitude | Altitude | Speed | Heading |
|---|---|---|---|---|---|
| 2026-04-14 14:50 | 42.94347 | -87.91159 | 707 ft | 0 kts | 340° |
| 2026-04-14 14:59 | 42.94342 | -87.91157 | 707 ft | 2 kts | 340° |
| 2026-04-14 14:59 | 42.94328 | -87.91150 | 707 ft | 2 kts | 340° |
| 2026-04-14 15:00 | 42.94318 | -87.91145 | 707 ft | 0 kts | 340° |
| 2026-04-14 15:00 | 42.94306 | -87.91136 | 706 ft | 2 kts | 306° |
| 2026-04-14 15:00 | 42.94300 | -87.91118 | 706 ft | 2 kts | 269° |
| 2026-04-14 15:00 | 42.94302 | -87.91108 | 706 ft | 1 kts | 247° |
| 2026-04-14 15:01 | 42.94304 | -87.91102 | 706 ft | 0 kts | 251° |
| 2026-04-14 15:01 | 42.94303 | -87.91102 | 706 ft | 0 kts | 251° |
| 2026-04-14 15:02 | 42.94303 | -87.91103 | 706 ft | 0 kts | 251° |
| 2026-04-14 15:03 | 42.94297 | -87.91129 | 706 ft | 6 kts | 252° |
| 2026-04-14 15:03 | 42.94274 | -87.91190 | 709 ft | 5 kts | 218° |
| 2026-04-14 15:03 | 42.94236 | -87.91191 | 709 ft | 6 kts | 169° |
| 2026-04-14 15:03 | 42.94192 | -87.91161 | 710 ft | 8 kts | 126° |
| 2026-04-14 15:04 | 42.94201 | -87.91046 | 705 ft | 17 kts | 71° |
| 2026-04-14 15:04 | 42.94249 | -87.90848 | 700 ft | 25 kts | 72° |
| 2026-04-14 15:04 | 42.94309 | -87.90605 | 693 ft | 28 kts | 72° |
| 2026-04-14 15:04 | 42.94372 | -87.90345 | 687 ft | 29 kts | 72° |
| 2026-04-14 15:05 | 42.94430 | -87.90103 | 684 ft | 25 kts | 72° |
| 2026-04-14 15:05 | 42.94487 | -87.89874 | 682 ft | 25 kts | 71° |
| 2026-04-14 15:05 | 42.94541 | -87.89690 | 681 ft | 16 kts | 52° |
| 2026-04-14 15:05 | 42.94632 | -87.89642 | 678 ft | 16 kts | 8° |
| 2026-04-14 15:06 | 42.94763 | -87.89622 | 678 ft | 21 kts | 6° |
| 2026-04-14 15:06 | 42.94930 | -87.89595 | 676 ft | 26 kts | 7° |
| 2026-04-14 15:06 | 42.95121 | -87.89562 | 676 ft | 27 kts | 7° |
| 2026-04-14 15:06 | 42.95300 | -87.89530 | 678 ft | 26 kts | 7° |
| 2026-04-14 15:07 | 42.95477 | -87.89501 | 678 ft | 24 kts | 7° |
| 2026-04-14 15:07 | 42.95632 | -87.89475 | 681 ft | 14 kts | 8° |
| 2026-04-14 15:07 | 42.95702 | -87.89462 | 681 ft | 9 kts | 11° |
| 2026-04-14 15:07 | 42.95742 | -87.89407 | 681 ft | 9 kts | 78° |
| 2026-04-14 15:08 | 42.95730 | -87.89320 | 681 ft | 9 kts | 141° |
| 2026-04-14 15:08 | 42.95687 | -87.89313 | 681 ft | 0 kts | 187° |
| 2026-04-14 15:08 | 42.95683 | -87.89314 | 681 ft | 6 kts | 187° |
| 2026-04-14 15:08 | 42.95453 | -87.89354 | 680 ft | 62 kts | 187° |
| 2026-04-14 15:09 | 42.94832 | -87.89460 | 678 ft | 115 kts | 187° |
| 2026-04-14 15:09 | 42.93867 | -87.89625 | 688 ft | 161 kts | 187° |
| 2026-04-14 15:09 | 42.92725 | -87.89831 | 1243 ft | 166 kts | 189° |
| 2026-04-14 15:09 | 42.91602 | -87.90026 | 1953 ft | 168 kts | 189° |
| 2026-04-14 15:10 | 42.90355 | -87.90145 | 2206 ft | 195 kts | 186° |
| 2026-04-14 15:10 | 42.88949 | -87.90397 | 2648 ft | 210 kts | 205° |
| 2026-04-14 15:10 | 42.87653 | -87.91423 | 3127 ft | 223 kts | 225° |
| 2026-04-14 15:10 | 42.86524 | -87.92968 | 3674 ft | 239 kts | 228° |
| 2026-04-14 15:11 | 42.85296 | -87.94588 | 4392 ft | 251 kts | 227° |
| 2026-04-14 15:11 | 42.84042 | -87.96207 | 5324 ft | 253 kts | 227° |
| 2026-04-14 15:11 | 42.82757 | -87.97850 | 6276 ft | 255 kts | 226° |
| 2026-04-14 15:11 | 42.81465 | -87.99493 | 7104 ft | 260 kts | 226° |
| 2026-04-14 15:12 | 42.80136 | -88.01177 | 7880 ft | 266 kts | 226° |
| 2026-04-14 15:12 | 42.78778 | -88.02892 | 8688 ft | 271 kts | 226° |
| 2026-04-14 15:12 | 42.77394 | -88.04636 | 9471 ft | 276 kts | 226° |
| 2026-04-14 15:12 | 42.75962 | -88.06440 | 10220 ft | 282 kts | 227° |
| 2026-04-14 15:13 | 42.74488 | -88.08297 | 10686 ft | 299 kts | 226° |
| 2026-04-14 15:13 | 42.72910 | -88.10281 | 11133 ft | 317 kts | 226° |
| 2026-04-14 15:13 | 42.71242 | -88.12344 | 11580 ft | 335 kts | 223° |
| 2026-04-14 15:13 | 42.69184 | -88.14046 | 11980 ft | 360 kts | 206° |
| 2026-04-14 15:14 | 42.66690 | -88.14941 | 12409 ft | 385 kts | 191° |
| 2026-04-14 15:14 | 42.63969 | -88.14937 | 13117 ft | 399 kts | 180° |
| 2026-04-14 15:14 | 42.61187 | -88.14752 | 13974 ft | 401 kts | 184° |
| 2026-04-14 15:14 | 42.58393 | -88.14693 | 14818 ft | 404 kts | 184° |
| 2026-04-14 15:15 | 42.55566 | -88.14648 | 15674 ft | 406 kts | 184° |
| 2026-04-14 15:15 | 42.52726 | -88.14543 | 16489 ft | 410 kts | 182° |
| 2026-04-14 15:15 | 42.49886 | -88.14421 | 17294 ft | 415 kts | 184° |
| 2026-04-14 15:15 | 42.46989 | -88.14294 | 18208 ft | 417 kts | 184° |
| 2026-04-14 15:16 | 42.44115 | -88.14177 | 19047 ft | 420 kts | 184° |
| 2026-04-14 15:16 | 42.41174 | -88.13932 | 19794 ft | 429 kts | 178° |
| 2026-04-14 15:16 | 42.38186 | -88.13158 | 20550 ft | 436 kts | 174° |
| 2026-04-14 15:16 | 42.35207 | -88.12389 | 21319 ft | 438 kts | 175° |
| 2026-04-14 15:17 | 42.32229 | -88.11597 | 21991 ft | 443 kts | 175° |
| 2026-04-14 15:17 | 42.29186 | -88.10808 | 22687 ft | 447 kts | 176° |
| 2026-04-14 15:17 | 42.26121 | -88.10047 | 23338 ft | 451 kts | 176° |
| 2026-04-14 15:17 | 42.23019 | -88.09268 | 24076 ft | 455 kts | 176° |
| 2026-04-14 15:18 | 42.19888 | -88.08485 | 24860 ft | 459 kts | 176° |
| 2026-04-14 15:18 | 42.16745 | -88.07698 | 25524 ft | 465 kts | 176° |
| 2026-04-14 15:18 | 42.13569 | -88.06902 | 26261 ft | 469 kts | 176° |
| 2026-04-14 15:18 | 42.10543 | -88.06146 | 26866 ft | 473 kts | 176° |
| 2026-04-14 15:19 | 42.07275 | -88.05328 | 27557 ft | 477 kts | 176° |
| 2026-04-14 15:19 | 42.04021 | -88.04530 | 28177 ft | 480 kts | 177° |
| 2026-04-14 15:19 | 42.00706 | -88.03729 | 28837 ft | 482 kts | 177° |
| 2026-04-14 15:19 | 41.97483 | -88.02949 | 29592 ft | 481 kts | 178° |
| 2026-04-14 15:20 | 41.94446 | -88.02329 | 30432 ft | 471 kts | 183° |
| 2026-04-14 15:20 | 41.92455 | -88.02217 | 30994 ft | 461 kts | 189° |
| 2026-04-14 15:20 | 41.88843 | -88.02512 | 31863 ft | 453 kts | 192° |
| 2026-04-14 15:20 | 41.86039 | -88.02784 | 32614 ft | 449 kts | 193° |
| 2026-04-14 15:21 | 41.83022 | -88.03096 | 33352 ft | 446 kts | 193° |
| 2026-04-14 15:21 | 41.79914 | -88.03421 | 34090 ft | 443 kts | 193° |
| 2026-04-14 15:21 | 41.76839 | -88.03751 | 34633 ft | 444 kts | 193° |
| 2026-04-14 15:21 | 41.73776 | -88.04080 | 35082 ft | 443 kts | 193° |
| 2026-04-14 15:22 | 41.70726 | -88.04408 | 35356 ft | 439 kts | 194° |
| 2026-04-14 15:22 | 41.67687 | -88.04733 | 35649 ft | 434 kts | 194° |
| 2026-04-14 15:22 | 41.64697 | -88.05057 | 35912 ft | 433 kts | 194° |
| 2026-04-14 15:22 | 41.61706 | -88.05384 | 35913 ft | 436 kts | 194° |
| 2026-04-14 15:23 | 41.55623 | -88.06043 | 35925 ft | 437 kts | 194° |
| 2026-04-14 15:23 | 41.49593 | -88.06694 | 35935 ft | 435 kts | 194° |
| 2026-04-14 15:24 | 41.43538 | -88.07346 | 35929 ft | 436 kts | 194° |
| 2026-04-14 15:24 | 41.37484 | -88.07998 | 35924 ft | 436 kts | 194° |
| 2026-04-14 15:25 | 41.31442 | -88.08648 | 35931 ft | 437 kts | 193° |
| 2026-04-14 15:25 | 41.25423 | -88.09292 | 35926 ft | 436 kts | 194° |
| 2026-04-14 15:26 | 41.19364 | -88.09942 | 35922 ft | 437 kts | 194° |
| 2026-04-14 15:26 | 41.13310 | -88.10587 | 35931 ft | 436 kts | 194° |
| 2026-04-14 15:27 | 41.07214 | -88.11239 | 35935 ft | 439 kts | 194° |
| 2026-04-14 15:27 | 41.01147 | -88.11884 | 35946 ft | 437 kts | 193° |
| 2026-04-14 15:28 | 40.95069 | -88.12528 | 35940 ft | 436 kts | 193° |
| 2026-04-14 15:28 | 40.89069 | -88.13165 | 35950 ft | 437 kts | 194° |
| 2026-04-14 15:29 | 40.82952 | -88.13813 | 35951 ft | 437 kts | 194° |
| 2026-04-14 15:29 | 40.76867 | -88.14455 | 35945 ft | 437 kts | 194° |
| 2026-04-14 15:30 | 40.70806 | -88.15095 | 35947 ft | 438 kts | 194° |
| 2026-04-14 15:30 | 40.64740 | -88.15734 | 35946 ft | 439 kts | 194° |
| 2026-04-14 15:31 | 40.58767 | -88.16866 | 35975 ft | 424 kts | 205° |
| 2026-04-14 15:31 | 40.53517 | -88.20080 | 35960 ft | 413 kts | 216° |
| 2026-04-14 15:32 | 40.48487 | -88.23714 | 35956 ft | 413 kts | 216° |
| 2026-04-14 15:32 | 40.43470 | -88.27396 | 35968 ft | 413 kts | 216° |
| 2026-04-14 15:33 | 40.38462 | -88.31092 | 35968 ft | 413 kts | 217° |
| 2026-04-14 15:33 | 40.33478 | -88.34777 | 35965 ft | 412 kts | 217° |
| 2026-04-14 15:34 | 40.28476 | -88.38474 | 35950 ft | 413 kts | 217° |
| 2026-04-14 15:34 | 40.23449 | -88.42186 | 35966 ft | 413 kts | 217° |
| 2026-04-14 15:35 | 40.18454 | -88.45866 | 35963 ft | 414 kts | 217° |
| 2026-04-14 15:35 | 40.13458 | -88.49544 | 35942 ft | 411 kts | 217° |
| 2026-04-14 15:36 | 40.08464 | -88.53215 | 35969 ft | 416 kts | 217° |
| 2026-04-14 15:36 | 40.03385 | -88.56940 | 35953 ft | 416 kts | 217° |
| 2026-04-14 15:37 | 39.98365 | -88.60615 | 35962 ft | 413 kts | 217° |
| 2026-04-14 15:37 | 39.93321 | -88.64304 | 35969 ft | 416 kts | 217° |
| 2026-04-14 15:38 | 39.88298 | -88.67968 | 35988 ft | 416 kts | 216° |
| 2026-04-14 15:38 | 39.83246 | -88.71649 | 35985 ft | 414 kts | 216° |
| 2026-04-14 15:39 | 39.78224 | -88.75302 | 35984 ft | 416 kts | 216° |
| 2026-04-14 15:39 | 39.73138 | -88.78996 | 35984 ft | 416 kts | 216° |
| 2026-04-14 15:40 | 39.68101 | -88.82645 | 35987 ft | 415 kts | 216° |
| 2026-04-14 15:40 | 39.63065 | -88.86290 | 35985 ft | 415 kts | 216° |
| 2026-04-14 15:41 | 39.58006 | -88.89945 | 35987 ft | 415 kts | 216° |
| 2026-04-14 15:41 | 39.52951 | -88.93591 | 35989 ft | 416 kts | 216° |
| 2026-04-14 15:42 | 39.47894 | -88.97231 | 35989 ft | 417 kts | 216° |
| 2026-04-14 15:42 | 39.42826 | -89.00874 | 35987 ft | 416 kts | 216° |
| 2026-04-14 15:43 | 39.37791 | -89.04487 | 35988 ft | 416 kts | 216° |
| 2026-04-14 15:43 | 39.32736 | -89.08109 | 35989 ft | 416 kts | 216° |
| 2026-04-14 15:44 | 39.27640 | -89.11752 | 35985 ft | 417 kts | 216° |
| 2026-04-14 15:44 | 39.22575 | -89.15369 | 35986 ft | 416 kts | 216° |
| 2026-04-14 15:45 | 39.17526 | -89.18967 | 35985 ft | 415 kts | 216° |
| 2026-04-14 15:45 | 39.12464 | -89.22571 | 35991 ft | 416 kts | 216° |
| 2026-04-14 15:46 | 39.07396 | -89.26171 | 35985 ft | 417 kts | 216° |
| 2026-04-14 15:46 | 39.02290 | -89.29791 | 35967 ft | 416 kts | 216° |
| 2026-04-14 15:47 | 38.97216 | -89.33385 | 35977 ft | 418 kts | 216° |
| 2026-04-14 15:47 | 38.92128 | -89.36981 | 35964 ft | 415 kts | 216° |
| 2026-04-14 15:48 | 38.87084 | -89.40543 | 35985 ft | 417 kts | 216° |
| 2026-04-14 15:48 | 38.81969 | -89.44145 | 35973 ft | 417 kts | 216° |
| 2026-04-14 15:49 | 38.76926 | -89.47693 | 35981 ft | 417 kts | 216° |
| 2026-04-14 15:49 | 38.71814 | -89.51284 | 35983 ft | 417 kts | 216° |
| 2026-04-14 15:50 | 38.66723 | -89.54852 | 35985 ft | 418 kts | 216° |
| 2026-04-14 15:50 | 38.61636 | -89.58414 | 35983 ft | 416 kts | 216° |
| 2026-04-14 15:51 | 38.56551 | -89.61968 | 35989 ft | 417 kts | 216° |
| 2026-04-14 15:51 | 38.51498 | -89.65494 | 35993 ft | 418 kts | 215° |
| 2026-04-14 15:52 | 38.46355 | -89.69075 | 36007 ft | 419 kts | 215° |
| 2026-04-14 15:52 | 38.41258 | -89.72619 | 36004 ft | 417 kts | 215° |
| 2026-04-14 15:53 | 38.36164 | -89.76157 | 36010 ft | 418 kts | 215° |
| 2026-04-14 15:53 | 38.31051 | -89.79701 | 36013 ft | 419 kts | 215° |
| 2026-04-14 15:54 | 38.23380 | -89.85008 | 36011 ft | 417 kts | 215° |
| 2026-04-14 15:55 | 38.18304 | -89.88512 | 36010 ft | 417 kts | 215° |
| 2026-04-14 15:55 | 38.13202 | -89.92030 | 36006 ft | 417 kts | 215° |
| 2026-04-14 15:56 | 38.08084 | -89.95552 | 36001 ft | 418 kts | 215° |
| 2026-04-14 15:56 | 38.02975 | -89.99063 | 36000 ft | 419 kts | 215° |
| 2026-04-14 15:57 | 37.97832 | -90.02591 | 36001 ft | 419 kts | 215° |
| 2026-04-14 15:57 | 37.92695 | -90.06109 | 36011 ft | 420 kts | 215° |
| 2026-04-14 15:58 | 37.87584 | -90.09604 | 36019 ft | 420 kts | 215° |
| 2026-04-14 15:58 | 37.82429 | -90.13123 | 36015 ft | 418 kts | 215° |
| 2026-04-14 15:59 | 37.77319 | -90.16606 | 36020 ft | 419 kts | 215° |
| 2026-04-14 15:59 | 37.72179 | -90.20105 | 36027 ft | 420 kts | 215° |
| 2026-04-14 16:00 | 37.67047 | -90.23604 | 36038 ft | 419 kts | 216° |
| 2026-04-14 16:00 | 37.62002 | -90.27263 | 36043 ft | 419 kts | 217° |
| 2026-04-14 16:01 | 37.56918 | -90.30948 | 36045 ft | 420 kts | 217° |
| 2026-04-14 16:01 | 37.51850 | -90.34615 | 36035 ft | 419 kts | 216° |
| 2026-04-14 16:02 | 37.46781 | -90.38276 | 36042 ft | 421 kts | 216° |
| 2026-04-14 16:02 | 37.41739 | -90.41911 | 36038 ft | 419 kts | 216° |
| 2026-04-14 16:03 | 37.36678 | -90.45556 | 36045 ft | 419 kts | 216° |
| 2026-04-14 16:03 | 37.31614 | -90.49195 | 36030 ft | 419 kts | 216° |
| 2026-04-14 16:04 | 37.26537 | -90.52840 | 36042 ft | 420 kts | 216° |
| 2026-04-14 16:04 | 37.21487 | -90.56457 | 36029 ft | 419 kts | 216° |
| 2026-04-14 16:05 | 37.16401 | -90.60098 | 36041 ft | 420 kts | 217° |
| 2026-04-14 16:05 | 37.11321 | -90.63726 | 36038 ft | 421 kts | 216° |
| 2026-04-14 16:06 | 37.06237 | -90.67351 | 36059 ft | 421 kts | 216° |
| 2026-04-14 16:06 | 37.01143 | -90.70979 | 36062 ft | 422 kts | 216° |
| 2026-04-14 16:07 | 36.96032 | -90.74612 | 36051 ft | 420 kts | 216° |
| 2026-04-14 16:07 | 36.90928 | -90.78236 | 36056 ft | 422 kts | 216° |
| 2026-04-14 16:08 | 36.85845 | -90.81839 | 35947 ft | 423 kts | 216° |
| 2026-04-14 16:08 | 36.83295 | -90.83645 | 35648 ft | 421 kts | 215° |
| 2026-04-14 16:08 | 36.80759 | -90.85436 | 35358 ft | 416 kts | 216° |
| 2026-04-14 16:08 | 36.78257 | -90.87206 | 35076 ft | 415 kts | 216° |
| 2026-04-14 16:09 | 36.75741 | -90.88985 | 34793 ft | 417 kts | 216° |
| 2026-04-14 16:09 | 36.73205 | -90.90776 | 34513 ft | 421 kts | 215° |
| 2026-04-14 16:09 | 36.70656 | -90.92575 | 34236 ft | 423 kts | 215° |
| 2026-04-14 16:09 | 36.68087 | -90.94385 | 33913 ft | 425 kts | 215° |
| 2026-04-14 16:10 | 36.65480 | -90.96222 | 33381 ft | 430 kts | 215° |
| 2026-04-14 16:10 | 36.62894 | -90.98041 | 32872 ft | 433 kts | 215° |
| 2026-04-14 16:10 | 36.60276 | -90.99882 | 32323 ft | 433 kts | 214° |
| 2026-04-14 16:10 | 36.57647 | -91.01728 | 31757 ft | 433 kts | 214° |
| 2026-04-14 16:11 | 36.55042 | -91.03555 | 31170 ft | 434 kts | 214° |
| 2026-04-14 16:11 | 36.52388 | -91.05418 | 30559 ft | 435 kts | 214° |
| 2026-04-14 16:11 | 36.49760 | -91.07259 | 29963 ft | 436 kts | 214° |
| 2026-04-14 16:11 | 36.47105 | -91.09119 | 29376 ft | 436 kts | 214° |
| 2026-04-14 16:12 | 36.44479 | -91.10954 | 28820 ft | 436 kts | 214° |
| 2026-04-14 16:12 | 36.41854 | -91.12789 | 28269 ft | 435 kts | 214° |
| 2026-04-14 16:12 | 36.39220 | -91.14629 | 27723 ft | 431 kts | 214° |
| 2026-04-14 16:12 | 36.36607 | -91.16451 | 27189 ft | 427 kts | 214° |
| 2026-04-14 16:13 | 36.34035 | -91.18246 | 26670 ft | 423 kts | 214° |
| 2026-04-14 16:13 | 36.31493 | -91.20016 | 26162 ft | 419 kts | 214° |
| 2026-04-14 16:13 | 36.28951 | -91.21788 | 25658 ft | 417 kts | 214° |
| 2026-04-14 16:13 | 36.26402 | -91.23563 | 25159 ft | 415 kts | 214° |
| 2026-04-14 16:14 | 36.23840 | -91.25194 | 24667 ft | 416 kts | 207° |
| 2026-04-14 16:14 | 36.21093 | -91.26269 | 24188 ft | 422 kts | 198° |
| 2026-04-14 16:14 | 36.18158 | -91.26733 | 23701 ft | 426 kts | 188° |
| 2026-04-14 16:14 | 36.15191 | -91.26553 | 23141 ft | 431 kts | 178° |
| 2026-04-14 16:15 | 36.12250 | -91.25720 | 22591 ft | 433 kts | 168° |
| 2026-04-14 16:15 | 36.09459 | -91.24269 | 22079 ft | 439 kts | 159° |
| 2026-04-14 16:15 | 36.06818 | -91.22269 | 21546 ft | 443 kts | 149° |
| 2026-04-14 16:15 | 36.04525 | -91.19777 | 21028 ft | 446 kts | 138° |
| 2026-04-14 16:16 | 36.02551 | -91.16769 | 20527 ft | 448 kts | 129° |
| 2026-04-14 16:16 | 36.00798 | -91.13626 | 20047 ft | 445 kts | 129° |
| 2026-04-14 16:16 | 35.99035 | -91.10506 | 19560 ft | 441 kts | 129° |
| 2026-04-14 16:16 | 35.97285 | -91.07414 | 19074 ft | 438 kts | 128° |
| 2026-04-14 16:17 | 35.95562 | -91.04376 | 18596 ft | 436 kts | 129° |
| 2026-04-14 16:17 | 35.93833 | -91.01334 | 18113 ft | 430 kts | 129° |
| 2026-04-14 16:17 | 35.92119 | -90.98316 | 17626 ft | 428 kts | 129° |
| 2026-04-14 16:17 | 35.90414 | -90.95317 | 17139 ft | 423 kts | 128° |
| 2026-04-14 16:18 | 35.88751 | -90.92408 | 16658 ft | 418 kts | 128° |
| 2026-04-14 16:18 | 35.87075 | -90.89500 | 16173 ft | 413 kts | 128° |
| 2026-04-14 16:18 | 35.85403 | -90.86600 | 15679 ft | 410 kts | 128° |
| 2026-04-14 16:18 | 35.83760 | -90.83766 | 15195 ft | 404 kts | 128° |
| 2026-04-14 16:19 | 35.82490 | -90.81580 | 14817 ft | 401 kts | 128° |
| 2026-04-14 16:19 | 35.80873 | -90.78822 | 14330 ft | 398 kts | 128° |
| 2026-04-14 16:19 | 35.79248 | -90.76060 | 13829 ft | 393 kts | 128° |
| 2026-04-14 16:19 | 35.77644 | -90.73347 | 13348 ft | 389 kts | 128° |
| 2026-04-14 16:20 | 35.76060 | -90.70680 | 12855 ft | 387 kts | 128° |
| 2026-04-14 16:20 | 35.74473 | -90.68015 | 12368 ft | 383 kts | 128° |
| 2026-04-14 16:20 | 35.72916 | -90.65400 | 11893 ft | 381 kts | 128° |
| 2026-04-14 16:20 | 35.71359 | -90.62785 | 11646 ft | 368 kts | 128° |
| 2026-04-14 16:21 | 35.69883 | -90.60298 | 11460 ft | 356 kts | 128° |
| 2026-04-14 16:21 | 35.68441 | -90.57874 | 11285 ft | 344 kts | 128° |
| 2026-04-14 16:21 | 35.67057 | -90.55545 | 11103 ft | 334 kts | 128° |
| 2026-04-14 16:21 | 35.65698 | -90.53249 | 10920 ft | 325 kts | 128° |
| 2026-04-14 16:22 | 35.64390 | -90.51044 | 10742 ft | 317 kts | 128° |
| 2026-04-14 16:22 | 35.63097 | -90.48867 | 10562 ft | 309 kts | 128° |
| 2026-04-14 16:22 | 35.61846 | -90.46746 | 10382 ft | 302 kts | 128° |
| 2026-04-14 16:22 | 35.60640 | -90.44704 | 10208 ft | 296 kts | 128° |
| 2026-04-14 16:23 | 35.59423 | -90.42645 | 9961 ft | 294 kts | 128° |
| 2026-04-14 16:23 | 35.58226 | -90.40620 | 9672 ft | 292 kts | 128° |
| 2026-04-14 16:23 | 35.57039 | -90.38617 | 9385 ft | 291 kts | 128° |
| 2026-04-14 16:23 | 35.55853 | -90.36603 | 9097 ft | 290 kts | 128° |
| 2026-04-14 16:24 | 35.54674 | -90.34602 | 8809 ft | 288 kts | 128° |
| 2026-04-14 16:24 | 35.53518 | -90.32632 | 8519 ft | 287 kts | 128° |
| 2026-04-14 16:24 | 35.52341 | -90.30621 | 8223 ft | 286 kts | 128° |
| 2026-04-14 16:24 | 35.51189 | -90.28645 | 7932 ft | 285 kts | 128° |
| 2026-04-14 16:25 | 35.50034 | -90.26655 | 7640 ft | 284 kts | 128° |
| 2026-04-14 16:25 | 35.48900 | -90.24705 | 7350 ft | 283 kts | 128° |
| 2026-04-14 16:25 | 35.47752 | -90.22720 | 7058 ft | 282 kts | 128° |
| 2026-04-14 16:25 | 35.46626 | -90.20774 | 6767 ft | 282 kts | 128° |
| 2026-04-14 16:26 | 35.45503 | -90.18820 | 6479 ft | 281 kts | 128° |
| 2026-04-14 16:26 | 35.44368 | -90.16836 | 6185 ft | 280 kts | 128° |
| 2026-04-14 16:26 | 35.43259 | -90.14893 | 5898 ft | 279 kts | 128° |
| 2026-04-14 16:26 | 35.42151 | -90.12944 | 5609 ft | 278 kts | 128° |
| 2026-04-14 16:27 | 35.41040 | -90.10977 | 5316 ft | 278 kts | 128° |
| 2026-04-14 16:27 | 35.39945 | -90.09033 | 5027 ft | 277 kts | 128° |
| 2026-04-14 16:27 | 35.38852 | -90.07074 | 4732 ft | 276 kts | 128° |
| 2026-04-14 16:27 | 35.37785 | -90.05141 | 4441 ft | 275 kts | 128° |
| 2026-04-14 16:28 | 35.36720 | -90.03216 | 4236 ft | 269 kts | 131° |
| 2026-04-14 16:28 | 35.35379 | -90.01754 | 4251 ft | 252 kts | 155° |
| 2026-04-14 16:28 | 35.33815 | -90.00768 | 4251 ft | 253 kts | 158° |
| 2026-04-14 16:28 | 35.32228 | -89.99807 | 4243 ft | 253 kts | 158° |
| 2026-04-14 16:29 | 35.30649 | -89.98854 | 4244 ft | 252 kts | 158° |
| 2026-04-14 16:29 | 35.29129 | -89.98226 | 4244 ft | 233 kts | 179° |
| 2026-04-14 16:29 | 35.27560 | -89.98161 | 4251 ft | 219 kts | 182° |
| 2026-04-14 16:29 | 35.26064 | -89.98098 | 4194 ft | 209 kts | 182° |
| 2026-04-14 16:30 | 35.24602 | -89.98048 | 3938 ft | 208 kts | 182° |
| 2026-04-14 16:30 | 35.23160 | -89.98006 | 3645 ft | 206 kts | 182° |
| 2026-04-14 16:30 | 35.21726 | -89.97968 | 3368 ft | 203 kts | 182° |
| 2026-04-14 16:30 | 35.20329 | -89.97933 | 3099 ft | 200 kts | 182° |
| 2026-04-14 16:31 | 35.18949 | -89.97901 | 2805 ft | 195 kts | 182° |
| 2026-04-14 16:31 | 35.17601 | -89.97871 | 2545 ft | 190 kts | 183° |
| 2026-04-14 16:31 | 35.16296 | -89.97843 | 2296 ft | 184 kts | 182° |
| 2026-04-14 16:31 | 35.15022 | -89.97817 | 2056 ft | 179 kts | 182° |
| 2026-04-14 16:32 | 35.13808 | -89.97791 | 1849 ft | 169 kts | 182° |
| 2026-04-14 16:32 | 35.12693 | -89.97763 | 1650 ft | 152 kts | 184° |
| 2026-04-14 16:32 | 35.11678 | -89.97741 | 1448 ft | 141 kts | 184° |
| 2026-04-14 16:32 | 35.10701 | -89.97726 | 1244 ft | 140 kts | 182° |
| 2026-04-14 16:33 | 35.09724 | -89.97706 | 1083 ft | 141 kts | 182° |
| 2026-04-14 16:33 | 35.08722 | -89.97695 | 926 ft | 143 kts | 183° |
| 2026-04-14 16:33 | 35.07731 | -89.97660 | 747 ft | 143 kts | 184° |
| 2026-04-14 16:33 | 35.06720 | -89.97643 | 544 ft | 143 kts | 183° |
| 2026-04-14 16:34 | 35.05710 | -89.97617 | 343 ft | 145 kts | 184° |
| 2026-04-14 16:34 | 35.04716 | -89.97599 | 293 ft | 129 kts | 182° |
| 2026-04-14 16:34 | 35.03963 | -89.97587 | 309 ft | 86 kts | 181° |
| 2026-04-14 16:34 | 35.03474 | -89.97572 | 321 ft | 45 kts | 182° |
| 2026-04-14 16:35 | 35.03278 | -89.97600 | 326 ft | 21 kts | 205° |
| 2026-04-14 16:35 | 35.03207 | -89.97678 | 329 ft | 9 kts | 249° |
| 2026-04-14 16:35 | 35.03234 | -89.97722 | 327 ft | 8 kts | 354° |
| 2026-04-14 16:35 | 35.03324 | -89.97723 | 326 ft | 17 kts | 359° |
| 2026-04-14 16:36 | 35.03484 | -89.97727 | 321 ft | 28 kts | 359° |
| 2026-04-14 16:36 | 35.03701 | -89.97733 | 315 ft | 27 kts | 359° |
| 2026-04-14 16:36 | 35.03900 | -89.97736 | 311 ft | 30 kts | 359° |
| 2026-04-14 16:36 | 35.04111 | -89.97739 | 305 ft | 30 kts | 358° |
| 2026-04-14 16:37 | 35.04332 | -89.97744 | 301 ft | 32 kts | 359° |
| 2026-04-14 16:37 | 35.04568 | -89.97749 | 297 ft | 28 kts | 359° |
| 2026-04-14 16:37 | 35.04766 | -89.97753 | 293 ft | 25 kts | 359° |
| 2026-04-14 16:37 | 35.04955 | -89.97757 | 287 ft | 25 kts | 359° |
| 2026-04-14 16:38 | 35.05143 | -89.97761 | 282 ft | 27 kts | 358° |
| 2026-04-14 16:38 | 35.05336 | -89.97773 | 277 ft | 28 kts | 351° |
| 2026-04-14 16:38 | 35.05529 | -89.97781 | 272 ft | 26 kts | 360° |
| 2026-04-14 16:38 | 35.05676 | -89.97781 | 269 ft | 19 kts | 0° |
| 2026-04-14 16:39 | 35.05819 | -89.97781 | 266 ft | 21 kts | 360° |
| 2026-04-14 16:39 | 35.05970 | -89.97782 | 264 ft | 19 kts | 360° |
| 2026-04-14 16:39 | 35.06116 | -89.97783 | 261 ft | 22 kts | 359° |
| 2026-04-14 16:39 | 35.06249 | -89.97783 | 261 ft | 18 kts | 359° |
| 2026-04-14 16:40 | 35.06377 | -89.97784 | 259 ft | 18 kts | 359° |
| 2026-04-14 16:40 | 35.06495 | -89.97785 | 258 ft | 12 kts | 360° |
| 2026-04-14 16:40 | 35.06559 | -89.97800 | 257 ft | 8 kts | 319° |
| 2026-04-14 16:40 | 35.06575 | -89.97862 | 256 ft | 7 kts | 271° |
| 2026-04-14 16:41 | 35.06573 | -89.97932 | 255 ft | 7 kts | 248° |
| 2026-04-14 16:41 | 35.06535 | -89.97948 | 256 ft | 6 kts | 182° |
| 2026-04-14 16:41 | 35.06507 | -89.97950 | 256 ft | 1 kts | 182° |
| 2026-04-14 16:41 | 35.06505 | -89.97950 | 256 ft | 0 kts | 182° |